Time;durP1;ratioP1;P1;durP2;ratioP2;P2;SDS_P1;SDS_P2;PMS_P1;PMS_P2;Temp;Humidity;BMP_temperature;BMP_pressure;BME280_temperature;BME280_humidity;BME280_pressure;Samples;Min_cycle;Max_cycle;Signal;HPM_P1;HPM_P2
2023/10/05 00:00:46;;;;;;;21.17;3.80;;;;;;;;;;5091719;28;20020;-73
2023/10/05 00:03:12;;;;;;;26.55;4.95;;;;;;;;;;5089401;28;20173;-74
2023/10/05 00:05:38;;;;;;;21.35;4.45;;;;;;;;;;5104806;28;20526;-75
2023/10/05 00:08:05;;;;;;;21.60;4.93;;;;;;;;;;5115212;28;20018;-73
2023/10/05 00:10:33;;;;;;;21.42;4.35;;;;;;;;;;5115148;28;20153;-73
2023/10/05 00:13:05;;;;;;;21.15;4.32;;;;;;;;;;5115026;28;20023;-72
2023/10/05 00:15:32;;;;;;;18.52;4.07;;;;;;;;;;5113998;28;20015;-73
2023/10/05 00:17:58;;;;;;;16.85;4.38;;;;;;;;;;5113952;28;20028;-74
2023/10/05 00:20:31;;;;;;;23.70;4.43;;;;;;;;;;5113891;28;20024;-74
2023/10/05 00:22:58;;;;;;;18.88;4.15;;;;;;;;;;5113851;28;20069;-73
2023/10/05 00:25:27;;;;;;;17.80;4.38;;;;;;;;;;5113740;28;20026;-73
2023/10/05 00:27:55;;;;;;;23.45;5.07;;;;;;;;;;5113604;28;20047;-73
2023/10/05 00:30:22;;;;;;;18.40;4.35;;;;;;;;;;5114472;28;20012;-74
2023/10/05 00:32:53;;;;;;;26.40;4.55;;;;;;;;;;5096617;28;20029;-73
2023/10/05 00:35:33;;;;;;;29.15;4.68;;;;;;;;;;5114814;28;20016;-75
2023/10/05 00:38:12;;;;;;;16.38;4.15;;;;;;;;;;5114558;28;20066;-74
2023/10/05 00:41:02;;;;;;;21.85;4.57;;;;;;;;;;5114807;28;20477;-75
2023/10/05 00:43:28;;;;;;;23.08;4.35;;;;;;;;;;5096130;28;20034;-73
2023/10/05 00:45:58;;;;;;;18.35;4.22;;;;;;;;;;5115450;28;20441;-74
2023/10/05 00:48:42;;;;;;;22.40;4.53;;;;;;;;;;5096269;28;20023;-74
2023/10/05 00:51:23;;;;;;;19.80;4.50;;;;;;;;;;5096042;28;20027;-75
2023/10/05 00:53:50;;;;;;;20.23;4.32;;;;;;;;;;5096967;28;20034;-75
2023/10/05 00:56:17;;;;;;;18.10;4.28;;;;;;;;;;5099613;28;20030;-76
2023/10/05 00:58:48;;;;;;;23.98;4.43;;;;;;;;;;5118146;28;20024;-75
2023/10/05 01:01:15;;;;;;;20.70;4.25;;;;;;;;;;5101041;28;20121;-75
2023/10/05 01:06:43;;;;;;;22.05;4.10;;;;;;;;;;5084710;28;20489;-73
2023/10/05 01:09:33;;;;;;;21.95;4.40;;;;;;;;;;5114100;28;20048;-74
2023/10/05 01:12:16;;;;;;;16.25;3.78;;;;;;;;;;5113961;28;20484;-74
2023/10/05 01:15:05;;;;;;;23.35;4.32;;;;;;;;;;5097229;28;20043;-74
2023/10/05 01:17:31;;;;;;;21.33;4.45;;;;;;;;;;5113571;28;20087;-75
2023/10/05 01:20:08;;;;;;;24.65;4.25;;;;;;;;;;5095236;28;20453;-75
2023/10/05 01:22:40;;;;;;;26.48;4.43;;;;;;;;;;5113544;28;20028;-75
2023/10/05 01:25:13;;;;;;;21.27;3.92;;;;;;;;;;5096429;28;20020;-75
2023/10/05 01:27:40;;;;;;;14.75;3.35;;;;;;;;;;5095844;28;20008;-74
2023/10/05 01:30:07;;;;;;;15.98;3.72;;;;;;;;;;5095971;28;20188;-75
2023/10/05 01:32:34;;;;;;;13.90;4.10;;;;;;;;;;5113749;28;20035;-74
2023/10/05 01:35:05;;;;;;;19.00;3.47;;;;;;;;;;5112461;28;20016;-74
2023/10/05 01:37:33;;;;;;;25.10;4.28;;;;;;;;;;5111598;28;20088;-73
2023/10/05 01:40:01;;;;;;;22.88;4.03;;;;;;;;;;5109332;28;20061;-73
2023/10/05 01:42:30;;;;;;;21.05;4.18;;;;;;;;;;5091634;28;20024;-73
2023/10/05 01:44:56;;;;;;;14.68;3.38;;;;;;;;;;5095463;28;20115;-74
2023/10/05 01:47:22;;;;;;;20.02;3.88;;;;;;;;;;5094674;28;20024;-74
2023/10/05 01:49:50;;;;;;;21.30;3.83;;;;;;;;;;5074627;28;20077;-73
2023/10/05 01:52:16;;;;;;;19.60;3.70;;;;;;;;;;5092076;28;20062;-74
2023/10/05 01:54:45;;;;;;;18.73;4.13;;;;;;;;;;5093494;28;20024;-74
2023/10/05 01:57:15;;;;;;;16.65;3.50;;;;;;;;;;5074779;28;20028;-74
2023/10/05 01:59:42;;;;;;;19.17;3.58;;;;;;;;;;5074837;28;20024;-75
2023/10/05 02:02:10;;;;;;;19.42;3.75;;;;;;;;;;5074609;28;20445;-74
2023/10/05 02:04:43;;;;;;;13.95;3.00;;;;;;;;;;5092514;28;20024;-73
2023/10/05 02:07:11;;;;;;;16.08;3.85;;;;;;;;;;5092423;28;20031;-73
2023/10/05 02:09:38;;;;;;;16.92;3.60;;;;;;;;;;5092851;28;20027;-73
2023/10/05 02:12:06;;;;;;;10.77;3.20;;;;;;;;;;5092458;28;20035;-74
2023/10/05 02:14:33;;;;;;;17.70;3.72;;;;;;;;;;5093008;28;20398;-74
2023/10/05 02:17:00;;;;;;;18.00;3.80;;;;;;;;;;5091908;28;20483;-74
2023/10/05 02:19:26;;;;;;;21.08;3.78;;;;;;;;;;5092627;28;20468;-73
2023/10/05 02:21:54;;;;;;;21.83;4.13;;;;;;;;;;5092059;28;20050;-73
2023/10/05 02:24:22;;;;;;;15.02;3.53;;;;;;;;;;5091489;28;20024;-73
2023/10/05 02:29:25;;;;;;;18.10;3.60;;;;;;;;;;5092316;28;20049;-73
2023/10/05 02:34:34;;;;;;;27.60;4.60;;;;;;;;;;5092409;28;20475;-73
2023/10/05 02:37:00;;;;;;;22.90;4.00;;;;;;;;;;5073822;28;20020;-73
2023/10/05 02:39:32;;;;;;;20.40;4.28;;;;;;;;;;5092071;28;20027;-74
2023/10/05 02:41:58;;;;;;;19.75;3.55;;;;;;;;;;5091835;28;20057;-73
2023/10/05 02:44:30;;;;;;;18.70;3.65;;;;;;;;;;5091975;28;20481;-73
2023/10/05 02:46:59;;;;;;;20.10;4.47;;;;;;;;;;5092889;28;20137;-74
2023/10/05 02:49:25;;;;;;;22.10;3.83;;;;;;;;;;5076009;28;20031;-74
2023/10/05 02:51:55;;;;;;;15.23;3.28;;;;;;;;;;5075051;28;20028;-74
2023/10/05 02:54:22;;;;;;;25.35;4.10;;;;;;;;;;5091816;28;20028;-72
2023/10/05 02:56:48;;;;;;;23.17;4.70;;;;;;;;;;5091529;28;20042;-73
2023/10/05 02:59:15;;;;;;;17.13;3.95;;;;;;;;;;5090806;28;20030;-73
2023/10/05 03:01:44;;;;;;;20.45;4.00;;;;;;;;;;5092100;28;20024;-75
2023/10/05 03:06:40;;;;;;;17.05;4.40;;;;;;;;;;5092685;28;20028;-73
2023/10/05 03:09:09;;;;;;;24.20;4.15;;;;;;;;;;5092679;28;20016;-73
2023/10/05 03:11:39;;;;;;;17.27;3.65;;;;;;;;;;5074593;28;20031;-73
2023/10/05 03:14:05;;;;;;;19.08;4.15;;;;;;;;;;5091939;28;20063;-73
2023/10/05 03:16:43;;;;;;;23.80;4.07;;;;;;;;;;5091620;28;20020;-72
2023/10/05 03:19:12;;;;;;;20.63;3.70;;;;;;;;;;5091676;28;20070;-73
2023/10/05 03:21:37;;;;;;;22.83;4.45;;;;;;;;;;5073169;28;20111;-74
2023/10/05 03:24:04;;;;;;;20.92;3.67;;;;;;;;;;5093618;28;20485;-77
2023/10/05 03:26:30;;;;;;;19.67;3.70;;;;;;;;;;5077620;28;20027;-75
2023/10/05 03:28:56;;;;;;;17.80;3.88;;;;;;;;;;5094902;28;20024;-75
2023/10/05 03:31:31;;;;;;;21.08;4.47;;;;;;;;;;5077526;28;20024;-74
2023/10/05 03:33:57;;;;;;;25.38;6.78;;;;;;;;;;5074157;28;20028;-80
2023/10/05 03:36:23;;;;;;;22.77;4.40;;;;;;;;;;5094544;28;20031;-78
2023/10/05 03:38:56;;;;;;;17.38;3.90;;;;;;;;;;5095262;28;20073;-77
2023/10/05 03:41:28;;;;;;;30.85;5.22;;;;;;;;;;5094954;28;20119;-76
2023/10/05 03:44:02;;;;;;;20.10;4.45;;;;;;;;;;5094809;28;20036;-76
2023/10/05 03:46:28;;;;;;;32.22;5.90;;;;;;;;;;5094030;28;20394;-74
2023/10/05 03:49:02;;;;;;;19.45;4.55;;;;;;;;;;5094626;28;20099;-75
2023/10/05 03:51:29;;;;;;;21.05;4.38;;;;;;;;;;5094108;28;20024;-75
2023/10/05 03:53:55;;;;;;;21.40;4.53;;;;;;;;;;5094109;28;20050;-75
2023/10/05 03:56:23;;;;;;;19.77;4.18;;;;;;;;;;5094408;28;20485;-76
2023/10/05 03:58:50;;;;;;;22.08;3.90;;;;;;;;;;5094688;28;20476;-74
2023/10/05 04:01:17;;;;;;;25.48;5.22;;;;;;;;;;5095002;28;20558;-74
2023/10/05 04:03:46;;;;;;;17.38;3.95;;;;;;;;;;5094686;28;20103;-74
2023/10/05 04:06:26;;;;;;;25.85;4.72;;;;;;;;;;5094901;28;20429;-74
2023/10/05 04:08:59;;;;;;;22.80;4.07;;;;;;;;;;5094782;28;20027;-73
2023/10/05 04:11:26;;;;;;;18.90;3.85;;;;;;;;;;5094704;28;20044;-75
2023/10/05 04:13:53;;;;;;;21.73;3.83;;;;;;;;;;5096457;28;20027;-74
2023/10/05 04:16:26;;;;;;;22.27;3.85;;;;;;;;;;5077582;28;20028;-74
2023/10/05 04:18:53;;;;;;;18.60;3.38;;;;;;;;;;5077465;28;20066;-74
2023/10/05 04:21:23;;;;;;;18.60;4.10;;;;;;;;;;5081771;28;20494;-76
2023/10/05 04:23:52;;;;;;;17.67;3.97;;;;;;;;;;5099713;28;20052;-76
2023/10/05 04:26:22;;;;;;;19.55;3.90;;;;;;;;;;5089300;28;20023;-77
2023/10/05 04:28:52;;;;;;;18.92;3.72;;;;;;;;;;5101444;28;20073;-77
2023/10/05 04:31:27;;;;;;;21.85;3.80;;;;;;;;;;5103342;28;20024;-77
2023/10/05 04:33:55;;;;;;;24.40;4.05;;;;;;;;;;5089928;28;20039;-77
2023/10/05 04:36:22;;;;;;;19.35;4.07;;;;;;;;;;5100495;28;20020;-76
2023/10/05 04:38:49;;;;;;;22.30;3.25;;;;;;;;;;5091175;28;20070;-75
2023/10/05 04:41:19;;;;;;;22.30;3.60;;;;;;;;;;5091943;28;20028;-76
2023/10/05 04:43:45;;;;;;;21.00;3.90;;;;;;;;;;5075911;28;20034;-76
2023/10/05 04:46:11;;;;;;;18.35;3.45;;;;;;;;;;5096971;28;20491;-77
2023/10/05 04:48:38;;;;;;;26.15;4.03;;;;;;;;;;5088525;28;20016;-76
2023/10/05 04:51:07;;;;;;;17.33;4.25;;;;;;;;;;5097908;28;20051;-77
2023/10/05 04:53:38;;;;;;;25.77;4.72;;;;;;;;;;5094691;28;20673;-75
2023/10/05 04:56:22;;;;;;;25.60;4.53;;;;;;;;;;5108865;28;20027;-74
2023/10/05 05:01:46;;;;;;;26.75;3.58;;;;;;;;;;5117068;28;20038;-74
2023/10/05 05:04:27;;;;;;;16.98;3.40;;;;;;;;;;5116768;28;20027;-75
2023/10/05 05:06:53;;;;;;;34.95;4.22;;;;;;;;;;5115926;28;20047;-74
2023/10/05 05:09:21;;;;;;;30.00;5.20;;;;;;;;;;5115759;28;20016;-74
2023/10/05 05:11:49;;;;;;;26.08;3.70;;;;;;;;;;5113279;28;20016;-73
2023/10/05 05:14:15;;;;;;;23.40;4.10;;;;;;;;;;5114889;28;20032;-75
2023/10/05 05:16:43;;;;;;;19.77;3.78;;;;;;;;;;5115454;28;20020;-75
2023/10/05 05:19:10;;;;;;;25.90;4.47;;;;;;;;;;5114221;28;20050;-74
2023/10/05 05:21:36;;;;;;;22.02;4.40;;;;;;;;;;5113359;28;20131;-74
2023/10/05 05:24:05;;;;;;;21.92;3.83;;;;;;;;;;5114202;28;20486;-74
2023/10/05 05:26:31;;;;;;;29.20;4.50;;;;;;;;;;5113216;28;20039;-75
2023/10/05 05:28:58;;;;;;;25.48;4.13;;;;;;;;;;5114007;28;20083;-76
2023/10/05 05:31:25;;;;;;;27.63;4.35;;;;;;;;;;5114592;28;20026;-78
2023/10/05 05:33:52;;;;;;;25.73;4.40;;;;;;;;;;5080057;28;20035;-74
2023/10/05 05:36:18;;;;;;;20.48;4.25;;;;;;;;;;5113469;28;20031;-75
2023/10/05 05:38:47;;;;;;;18.33;4.20;;;;;;;;;;5113153;28;20032;-74
2023/10/05 05:41:19;;;;;;;26.35;5.70;;;;;;;;;;5113307;28;20118;-79
2023/10/05 05:43:45;;;;;;;24.05;4.32;;;;;;;;;;5113713;28;20031;-74
2023/10/05 05:46:14;;;;;;;27.08;4.05;;;;;;;;;;5113437;28;20050;-76
2023/10/05 05:48:42;;;;;;;21.08;4.18;;;;;;;;;;5113392;28;20027;-75
2023/10/05 05:51:14;;;;;;;21.70;4.03;;;;;;;;;;5096304;28;20008;-75
2023/10/05 05:53:40;;;;;;;25.05;4.93;;;;;;;;;;5098653;28;20364;-75
2023/10/05 05:56:06;;;;;;;20.35;4.30;;;;;;;;;;5073998;28;20478;-74
2023/10/05 05:58:32;;;;;;;26.25;5.57;;;;;;;;;;5086512;28;20024;-77
2023/10/05 06:00:58;;;;;;;25.48;4.50;;;;;;;;;;5092411;28;20024;-75
2023/10/05 06:03:27;;;;;;;26.05;5.25;;;;;;;;;;5077051;28;20367;-74
2023/10/05 06:05:53;;;;;;;20.58;4.95;;;;;;;;;;5087233;28;20036;-75
2023/10/05 06:08:19;;;;;;;22.20;5.10;;;;;;;;;;5092941;28;20016;-76
2023/10/05 06:10:46;;;;;;;31.40;4.75;;;;;;;;;;5092935;28;20486;-76
2023/10/05 06:13:13;;;;;;;28.58;4.43;;;;;;;;;;5107283;28;20018;-77
2023/10/05 06:15:39;;;;;;;21.63;3.90;;;;;;;;;;5105480;28;20020;-74
2023/10/05 06:18:05;;;;;;;27.77;4.43;;;;;;;;;;5112457;28;20090;-73
2023/10/05 06:20:31;;;;;;;15.10;4.80;;;;;;;;;;5112249;28;20032;-75
2023/10/05 06:22:58;;;;;;;22.67;4.93;;;;;;;;;;5114819;28;20019;-75
2023/10/05 06:25:27;;;;;;;19.17;4.20;;;;;;;;;;5114533;28;20034;-75
2023/10/05 06:27:53;;;;;;;28.38;6.65;;;;;;;;;;5114258;28;20470;-74
2023/10/05 06:30:20;;;;;;;31.15;6.85;;;;;;;;;;5113209;28;20150;-76
2023/10/05 06:32:47;;;;;;;24.00;6.38;;;;;;;;;;5112425;28;20106;-73
2023/10/05 06:35:13;;;;;;;24.30;5.18;;;;;;;;;;5112194;28;20020;-75
2023/10/05 06:37:39;;;;;;;18.08;4.82;;;;;;;;;;5111800;28;20034;-74
2023/10/05 06:40:12;;;;;;;21.65;4.20;;;;;;;;;;5112161;28;20053;-76
2023/10/05 06:42:41;;;;;;;17.83;4.57;;;;;;;;;;5112595;28;20051;-79
2023/10/05 06:45:08;;;;;;;22.85;5.90;;;;;;;;;;5114698;28;20026;-78
2023/10/05 06:47:37;;;;;;;22.33;5.72;;;;;;;;;;5114196;28;20020;-77
2023/10/05 06:50:11;;;;;;;46.85;14.80;;;;;;;;;;5113743;28;20018;-76
2023/10/05 06:52:42;;;;;;;23.40;7.25;;;;;;;;;;5113177;28;20482;-77
2023/10/05 06:55:14;;;;;;;24.98;7.65;;;;;;;;;;5116628;28;20031;-76
2023/10/05 06:57:44;;;;;;;23.13;7.30;;;;;;;;;;5116426;28;20034;-75
2023/10/05 07:00:20;;;;;;;23.70;9.48;;;;;;;;;;5097945;28;20023;-75
2023/10/05 07:02:46;;;;;;;17.33;5.82;;;;;;;;;;5097984;28;20375;-77
2023/10/05 07:05:13;;;;;;;16.95;5.93;;;;;;;;;;5115304;28;20024;-75
2023/10/05 07:07:40;;;;;;;15.13;5.70;;;;;;;;;;5112514;28;20023;-78
2023/10/05 07:10:07;;;;;;;15.07;3.90;;;;;;;;;;5112751;28;20532;-76
2023/10/05 07:12:38;;;;;;;14.35;3.45;;;;;;;;;;5117327;28;20024;-76
2023/10/05 07:15:05;;;;;;;10.73;3.15;;;;;;;;;;5117824;28;20401;-76
2023/10/05 07:17:31;;;;;;;12.77;3.33;;;;;;;;;;5116916;28;20062;-76
2023/10/05 07:19:58;;;;;;;9.70;2.90;;;;;;;;;;5116985;28;20073;-75
2023/10/05 07:22:24;;;;;;;10.18;3.53;;;;;;;;;;5118032;28;20098;-76
2023/10/05 07:24:50;;;;;;;10.45;3.42;;;;;;;;;;5117473;28;20116;-76
2023/10/05 07:27:17;;;;;;;8.75;2.50;;;;;;;;;;5117066;28;20046;-77
2023/10/05 07:29:45;;;;;;;6.40;2.92;;;;;;;;;;5116796;28;20027;-77
2023/10/05 07:32:11;;;;;;;9.52;4.20;;;;;;;;;;5117323;28;20569;-76
2023/10/05 07:34:38;;;;;;;13.70;4.75;;;;;;;;;;5115817;28;20079;-75
2023/10/05 07:37:05;;;;;;;12.25;5.18;;;;;;;;;;5117282;28;20458;-73
2023/10/05 07:39:31;;;;;;;10.05;3.00;;;;;;;;;;5081770;28;20118;-74
2023/10/05 07:41:59;;;;;;;7.57;2.58;;;;;;;;;;5116192;28;20486;-76
2023/10/05 07:44:27;;;;;;;6.63;2.70;;;;;;;;;;5117797;28;20406;-78
2023/10/05 07:46:53;;;;;;;6.38;2.10;;;;;;;;;;5117270;28;20016;-78
2023/10/05 07:49:20;;;;;;;6.05;2.75;;;;;;;;;;5117366;28;20076;-76
2023/10/05 07:51:46;;;;;;;8.68;2.08;;;;;;;;;;5098310;28;20027;-78
2023/10/05 07:54:12;;;;;;;5.32;1.98;;;;;;;;;;5115479;28;20447;-77
2023/10/05 07:56:38;;;;;;;6.75;1.77;;;;;;;;;;5116025;28;20062;-79
2023/10/05 07:59:04;;;;;;;4.88;1.48;;;;;;;;;;5115702;28;20426;-76
2023/10/05 08:01:30;;;;;;;4.63;1.70;;;;;;;;;;5115615;28;20032;-78
2023/10/05 08:03:57;;;;;;;5.45;1.90;;;;;;;;;;5121248;28;20015;-79
2023/10/05 08:06:25;;;;;;;4.90;1.52;;;;;;;;;;5117778;28;20068;-78
2023/10/05 08:08:51;;;;;;;6.90;1.80;;;;;;;;;;5119034;28;20019;-80
2023/10/05 08:11:17;;;;;;;5.07;1.30;;;;;;;;;;5120036;28;20023;-78
2023/10/05 08:13:43;;;;;;;4.32;1.55;;;;;;;;;;5118588;28;20058;-79
2023/10/05 08:16:09;;;;;;;3.72;1.40;;;;;;;;;;5122459;28;20031;-77
2023/10/05 08:18:36;;;;;;;4.10;1.38;;;;;;;;;;5117505;28;20026;-79
2023/10/05 08:21:02;;;;;;;4.50;2.22;;;;;;;;;;5117941;28;20023;-78
2023/10/05 08:23:28;;;;;;;9.05;3.35;;;;;;;;;;5116063;28;20052;-76
2023/10/05 08:25:57;;;;;;;3.75;1.65;;;;;;;;;;5115686;28;20028;-76
2023/10/05 08:28:24;;;;;;;2.97;1.63;;;;;;;;;;5115538;28;20072;-76
2023/10/05 08:33:46;;;;;;;3.78;1.73;;;;;;;;;;5101893;28;20035;-77
2023/10/05 08:36:12;;;;;;;3.33;1.58;;;;;;;;;;5115080;28;20075;-76
2023/10/05 08:38:39;;;;;;;5.05;1.40;;;;;;;;;;5117635;28;20046;-78
2023/10/05 08:41:07;;;;;;;7.82;1.70;;;;;;;;;;5116171;28;20028;-79
2023/10/05 08:43:39;;;;;;;4.70;2.03;;;;;;;;;;5119496;28;20032;-81
2023/10/05 08:46:10;;;;;;;3.80;1.05;;;;;;;;;;5130844;28;20023;-82
2023/10/05 08:48:37;;;;;;;6.70;1.65;;;;;;;;;;5118904;28;20016;-77
2023/10/05 08:51:12;;;;;;;6.50;1.63;;;;;;;;;;5114422;28;20047;-77
2023/10/05 08:53:44;;;;;;;3.88;1.20;;;;;;;;;;5119274;28;20028;-79
2023/10/05 08:56:15;;;;;;;6.05;1.25;;;;;;;;;;5121649;28;20102;-80
2023/10/05 08:58:48;;;;;;;3.33;1.20;;;;;;;;;;5117292;28;20157;-80
2023/10/05 09:01:24;;;;;;;4.22;1.10;;;;;;;;;;5118963;28;20110;-78
2023/10/05 09:03:53;;;;;;;6.10;1.45;;;;;;;;;;5116221;28;20030;-76
2023/10/05 09:06:26;;;;;;;7.22;1.30;;;;;;;;;;5114089;28;20012;-77
2023/10/05 09:08:53;;;;;;;5.38;1.55;;;;;;;;;;5114584;28;20024;-77
2023/10/05 09:11:31;;;;;;;5.72;1.40;;;;;;;;;;5114888;28;20020;-77
2023/10/05 09:13:58;;;;;;;6.53;1.30;;;;;;;;;;5114630;28;20016;-76
2023/10/05 09:16:30;;;;;;;9.38;1.92;;;;;;;;;;5116484;28;20024;-76
2023/10/05 09:18:57;;;;;;;9.02;1.40;;;;;;;;;;5116931;28;20076;-78
2023/10/05 09:21:25;;;;;;;8.82;1.73;;;;;;;;;;5115804;28;20020;-76
2023/10/05 09:23:51;;;;;;;5.43;1.13;;;;;;;;;;5113759;28;20392;-78
2023/10/05 09:26:33;;;;;;;4.78;1.20;;;;;;;;;;5114657;28;20023;-76
2023/10/05 09:29:20;;;;;;;5.18;1.60;;;;;;;;;;5114016;28;20098;-77
2023/10/05 09:31:50;;;;;;;7.00;1.80;;;;;;;;;;5113623;28;20016;-78
2023/10/05 09:34:17;;;;;;;7.50;1.65;;;;;;;;;;5113732;28;20023;-77
2023/10/05 09:36:43;;;;;;;5.82;1.65;;;;;;;;;;5113129;28;20385;-78
2023/10/05 09:39:10;;;;;;;9.82;1.58;;;;;;;;;;5113817;28;20019;-76
2023/10/05 09:41:37;;;;;;;5.65;1.85;;;;;;;;;;5113594;28;20110;-76
2023/10/05 09:44:07;;;;;;;7.85;1.55;;;;;;;;;;5113217;28;20088;-76
2023/10/05 09:46:34;;;;;;;11.55;4.65;;;;;;;;;;5113164;28;20023;-76
2023/10/05 09:49:02;;;;;;;8.30;2.60;;;;;;;;;;5113816;28;20016;-75
2023/10/05 09:51:28;;;;;;;8.35;1.65;;;;;;;;;;5113536;28;20387;-77
2023/10/05 09:53:57;;;;;;;9.68;1.85;;;;;;;;;;5113385;28;20140;-76
2023/10/05 09:56:25;;;;;;;10.05;1.80;;;;;;;;;;5113467;28;20487;-77
2023/10/05 09:58:52;;;;;;;15.52;1.95;;;;;;;;;;5113658;28;20020;-78
2023/10/05 10:01:22;;;;;;;18.25;8.15;;;;;;;;;;5113442;28;20020;-78
2023/10/05 10:03:52;;;;;;;16.50;4.82;;;;;;;;;;5114006;28;20386;-75
2023/10/05 10:06:20;;;;;;;10.40;3.90;;;;;;;;;;5113287;28;20027;-77
2023/10/05 10:08:54;;;;;;;14.43;5.32;;;;;;;;;;5113404;28;20019;-76
2023/10/05 10:11:20;;;;;;;14.23;4.53;;;;;;;;;;5113130;28;20023;-76
2023/10/05 10:14:00;;;;;;;12.43;2.83;;;;;;;;;;5097900;28;20099;-76
2023/10/05 10:16:27;;;;;;;21.40;4.03;;;;;;;;;;5092862;28;20016;-76
2023/10/05 10:18:58;;;;;;;13.95;2.75;;;;;;;;;;5092777;28;20509;-77
2023/10/05 10:21:25;;;;;;;15.60;2.88;;;;;;;;;;5093456;28;20027;-78
2023/10/05 10:24:01;;;;;;;12.55;4.10;;;;;;;;;;5093353;28;20023;-76
2023/10/05 10:26:28;;;;;;;14.45;3.30;;;;;;;;;;5093675;28;20016;-77
2023/10/05 10:31:26;;;;;;;17.42;3.38;;;;;;;;;;5092932;28;20074;-79
2023/10/05 10:33:52;;;;;;;22.25;3.08;;;;;;;;;;5093102;28;20081;-77
2023/10/05 10:36:23;;;;;;;10.55;2.40;;;;;;;;;;5094404;28;20483;-77
2023/10/05 10:38:50;;;;;;;8.98;2.80;;;;;;;;;;5096111;28;20027;-77
2023/10/05 10:41:17;;;;;;;13.35;3.50;;;;;;;;;;5083166;28;20039;-75
2023/10/05 10:43:52;;;;;;;11.70;2.75;;;;;;;;;;5105960;28;20028;-76
2023/10/05 10:46:29;;;;;;;11.93;3.40;;;;;;;;;;5095967;28;20027;-76
2023/10/05 10:48:59;;;;;;;19.45;3.25;;;;;;;;;;5114795;28;20098;-75
2023/10/05 10:51:37;;;;;;;18.08;3.53;;;;;;;;;;5116093;28;20040;-76
2023/10/05 10:54:14;;;;;;;16.30;3.70;;;;;;;;;;5107252;28;20103;-76
2023/10/05 10:56:44;;;;;;;9.77;2.38;;;;;;;;;;5075237;28;20056;-77
2023/10/05 10:59:13;;;;;;;12.77;3.13;;;;;;;;;;5091774;28;20024;-77
2023/10/05 11:01:43;;;;;;;14.50;3.15;;;;;;;;;;5074467;28;20055;-77
2023/10/05 11:04:25;;;;;;;16.65;2.88;;;;;;;;;;5095001;28;20035;-77
2023/10/05 11:06:56;;;;;;;8.48;2.30;;;;;;;;;;5093619;28;20039;-76
2023/10/05 11:09:30;;;;;;;17.42;3.40;;;;;;;;;;5093974;28;20099;-77
2023/10/05 11:11:56;;;;;;;11.18;2.75;;;;;;;;;;5093484;28;20024;-77
2023/10/05 11:14:28;;;;;;;11.82;2.97;;;;;;;;;;5096113;28;20035;-75
2023/10/05 11:16:59;;;;;;;11.18;2.63;;;;;;;;;;5092234;28;20025;-76
2023/10/05 11:19:34;;;;;;;16.30;3.30;;;;;;;;;;5092531;28;20450;-76
2023/10/05 11:22:06;;;;;;;14.02;3.20;;;;;;;;;;5094536;28;20091;-77
2023/10/05 11:24:39;;;;;;;14.70;3.28;;;;;;;;;;5092291;28;20125;-76
2023/10/05 11:27:05;;;;;;;16.83;3.13;;;;;;;;;;5092057;28;20021;-76
2023/10/05 11:29:43;;;;;;;9.75;2.70;;;;;;;;;;5093410;28;20425;-76
2023/10/05 11:32:19;;;;;;;13.18;3.08;;;;;;;;;;5092635;28;20117;-76
2023/10/05 11:34:46;;;;;;;14.20;5.85;;;;;;;;;;5093196;28;20463;-75
2023/10/05 11:37:18;;;;;;;7.07;2.47;;;;;;;;;;5093024;28;20048;-76
2023/10/05 11:39:58;;;;;;;8.32;2.60;;;;;;;;;;5093721;28;20108;-76
2023/10/05 11:42:25;;;;;;;11.73;2.78;;;;;;;;;;5092980;28;20048;-75
2023/10/05 11:45:03;;;;;;;12.75;3.00;;;;;;;;;;5092913;28;20036;-75
2023/10/05 11:47:35;;;;;;;10.07;2.65;;;;;;;;;;5075488;28;20035;-75
2023/10/05 11:50:07;;;;;;;9.98;2.53;;;;;;;;;;5093439;28;20028;-77
2023/10/05 11:52:34;;;;;;;11.05;2.80;;;;;;;;;;5092850;28;20024;-75
2023/10/05 11:55:05;;;;;;;10.20;2.75;;;;;;;;;;5093130;28;20043;-81
2023/10/05 11:57:32;;;;;;;8.68;2.13;;;;;;;;;;5096451;28;20016;-77
2023/10/05 12:00:04;;;;;;;8.88;2.47;;;;;;;;;;5099126;28;20509;-80
2023/10/05 12:02:30;;;;;;;8.10;2.42;;;;;;;;;;5099047;28;20012;-77
2023/10/05 12:04:56;;;;;;;11.73;2.53;;;;;;;;;;5098266;28;20035;-76
2023/10/05 12:07:25;;;;;;;12.55;2.22;;;;;;;;;;5096286;28;20016;-77
2023/10/05 12:09:51;;;;;;;16.67;2.53;;;;;;;;;;5095903;28;20016;-78
2023/10/05 12:12:18;;;;;;;10.52;2.53;;;;;;;;;;5095237;28;20471;-80
2023/10/05 12:14:44;;;;;;;9.43;2.28;;;;;;;;;;5094938;28;20027;-78
2023/10/05 12:17:10;;;;;;;16.30;3.00;;;;;;;;;;5094226;28;20024;-77
2023/10/05 12:19:37;;;;;;;14.43;4.18;;;;;;;;;;5094442;28;20073;-76
2023/10/05 12:22:05;;;;;;;9.88;2.40;;;;;;;;;;5094973;28;20051;-76
2023/10/05 12:24:33;;;;;;;11.50;2.67;;;;;;;;;;5094901;28;20103;-77
2023/10/05 12:26:59;;;;;;;16.13;4.20;;;;;;;;;;5094316;28;20016;-76
2023/10/05 12:29:27;;;;;;;15.18;2.63;;;;;;;;;;5095825;28;20590;-78
2023/10/05 12:31:56;;;;;;;10.93;2.20;;;;;;;;;;5095765;28;20092;-79
2023/10/05 12:34:23;;;;;;;10.20;2.65;;;;;;;;;;5097108;28;20024;-77
2023/10/05 12:36:49;;;;;;;10.13;2.28;;;;;;;;;;5095734;28;20026;-76
2023/10/05 12:39:26;;;;;;;9.48;2.00;;;;;;;;;;5095112;28;20157;-77
2023/10/05 12:41:54;;;;;;;7.63;2.10;;;;;;;;;;5094892;28;20024;-76
2023/10/05 12:44:20;;;;;;;6.35;2.00;;;;;;;;;;5094807;28;20027;-75
2023/10/05 12:46:46;;;;;;;10.20;2.17;;;;;;;;;;5076890;28;20050;-76
2023/10/05 12:49:14;;;;;;;10.98;2.90;;;;;;;;;;5095090;28;20032;-75
2023/10/05 12:51:40;;;;;;;12.48;2.47;;;;;;;;;;5094113;28;20383;-76
2023/10/05 12:54:18;;;;;;;9.18;2.53;;;;;;;;;;5094432;28;20051;-75
2023/10/05 12:56:50;;;;;;;6.55;2.03;;;;;;;;;;5094642;28;20028;-80
2023/10/05 12:59:19;;;;;;;10.30;2.13;;;;;;;;;;5095038;28;20076;-77
2023/10/05 13:01:46;;;;;;;13.20;2.53;;;;;;;;;;5094593;28;20027;-75
2023/10/05 13:04:12;;;;;;;9.98;2.08;;;;;;;;;;5092176;28;20024;-75
2023/10/05 13:06:39;;;;;;;7.93;1.88;;;;;;;;;;5091174;28;20048;-76
2023/10/05 13:09:11;;;;;;;10.07;2.50;;;;;;;;;;5093238;28;20028;-76
2023/10/05 13:11:39;;;;;;;9.43;2.00;;;;;;;;;;5103426;28;20020;-75
2023/10/05 13:14:08;;;;;;;9.60;2.05;;;;;;;;;;5087144;28;20033;-77
2023/10/05 13:16:38;;;;;;;7.10;1.65;;;;;;;;;;5097771;28;20438;-76
2023/10/05 13:19:06;;;;;;;13.50;2.67;;;;;;;;;;5096177;28;20274;-75
2023/10/05 13:21:35;;;;;;;10.57;2.22;;;;;;;;;;5080417;28;20384;-76
2023/10/05 13:24:01;;;;;;;14.02;2.65;;;;;;;;;;5094040;28;20539;-77
2023/10/05 13:26:28;;;;;;;10.80;2.75;;;;;;;;;;5095655;28;20070;-76
2023/10/05 13:28:59;;;;;;;9.10;2.05;;;;;;;;;;5096552;28;20020;-77
2023/10/05 13:31:25;;;;;;;7.88;2.05;;;;;;;;;;5084108;28;20069;-76
2023/10/05 13:33:54;;;;;;;14.60;2.50;;;;;;;;;;5097102;28;20060;-75
2023/10/05 13:36:21;;;;;;;13.13;3.20;;;;;;;;;;5096680;28;20019;-78
2023/10/05 13:38:47;;;;;;;10.65;2.60;;;;;;;;;;5087930;28;20032;-75
2023/10/05 13:41:13;;;;;;;7.03;2.40;;;;;;;;;;5095180;28;20028;-75
2023/10/05 13:43:39;;;;;;;12.35;2.97;;;;;;;;;;5093364;28;20107;-77
2023/10/05 13:46:21;;;;;;;7.80;2.17;;;;;;;;;;5095896;28;20024;-77
2023/10/05 13:48:48;;;;;;;12.45;3.20;;;;;;;;;;5082943;28;20017;-75
2023/10/05 13:51:19;;;;;;;12.65;2.50;;;;;;;;;;5097397;28;20063;-77
2023/10/05 13:53:46;;;;;;;12.30;2.97;;;;;;;;;;5093753;28;20020;-75
2023/10/05 13:56:13;;;;;;;6.95;2.00;;;;;;;;;;5094256;28;20031;-77
2023/10/05 13:58:47;;;;;;;11.25;2.55;;;;;;;;;;5095895;28;20019;-77
2023/10/05 14:01:16;;;;;;;11.32;3.00;;;;;;;;;;5110867;28;20066;-76
2023/10/05 14:03:47;;;;;;;8.35;2.60;;;;;;;;;;5093258;28;20110;-78
2023/10/05 14:06:13;;;;;;;11.15;2.95;;;;;;;;;;5095802;28;20025;-76
2023/10/05 14:08:39;;;;;;;16.55;3.92;;;;;;;;;;5085212;28;20025;-76
2023/10/05 14:11:09;;;;;;;9.15;2.65;;;;;;;;;;5081686;28;20021;-81
2023/10/05 14:13:36;;;;;;;9.85;2.65;;;;;;;;;;5091221;28;20412;-76
2023/10/05 14:16:03;;;;;;;12.40;2.65;;;;;;;;;;5116869;28;20032;-75
2023/10/05 14:18:30;;;;;;;8.50;2.25;;;;;;;;;;5085354;28;20420;-75
2023/10/05 14:20:56;;;;;;;7.10;2.20;;;;;;;;;;5073594;28;20593;-76
2023/10/05 14:23:24;;;;;;;10.40;2.33;;;;;;;;;;5093405;28;20020;-76
2023/10/05 14:25:50;;;;;;;12.98;2.17;;;;;;;;;;5092425;28;20452;-75
2023/10/05 14:28:20;;;;;;;15.85;2.45;;;;;;;;;;5092689;28;20027;-78
2023/10/05 14:30:49;;;;;;;11.30;3.13;;;;;;;;;;5092154;28;20441;-77
2023/10/05 14:33:22;;;;;;;11.95;2.63;;;;;;;;;;5094022;28;20008;-76
2023/10/05 14:35:50;;;;;;;6.77;2.37;;;;;;;;;;5092451;28;20115;-76
2023/10/05 14:38:17;;;;;;;9.13;2.05;;;;;;;;;;5091012;28;20346;-76
2023/10/05 14:40:50;;;;;;;9.85;2.38;;;;;;;;;;5092047;28;20019;-77
2023/10/05 14:43:32;;;;;;;13.47;3.37;;;;;;;;;;5092025;28;20041;-75
2023/10/05 14:45:59;;;;;;;8.65;2.30;;;;;;;;;;5092611;28;20595;-75
2023/10/05 14:48:29;;;;;;;10.80;2.22;;;;;;;;;;5091223;28;20023;-75
2023/10/05 14:50:57;;;;;;;12.35;4.38;;;;;;;;;;5090386;28;20145;-75
2023/10/05 14:53:24;;;;;;;7.07;2.10;;;;;;;;;;5091312;28;20020;-75
2023/10/05 14:55:51;;;;;;;11.98;2.80;;;;;;;;;;5091514;28;20506;-75
2023/10/05 14:58:17;;;;;;;9.48;2.40;;;;;;;;;;5090756;28;20027;-74
2023/10/05 15:00:45;;;;;;;10.13;2.65;;;;;;;;;;5091430;28;20024;-76
2023/10/05 15:03:12;;;;;;;16.90;5.22;;;;;;;;;;5091838;28;20027;-76